sensor_id;sensor_type;location;lat;lon;timestamp;temperature;humidity
40374;DHT22;26079;45.958;12.492;2023-04-28T00:01:06;9.90;95.70
40374;DHT22;26079;45.958;12.492;2023-04-28T00:03:32;9.90;96.30
40374;DHT22;26079;45.958;12.492;2023-04-28T00:05:58;9.90;96.30
40374;DHT22;26079;45.958;12.492;2023-04-28T00:08:23;9.90;96.50
40374;DHT22;26079;45.958;12.492;2023-04-28T00:10:51;9.90;96.30
40374;DHT22;26079;45.958;12.492;2023-04-28T00:13:17;10.00;97.10
40374;DHT22;26079;45.958;12.492;2023-04-28T00:15:43;9.90;97.00
40374;DHT22;26079;45.958;12.492;2023-04-28T00:18:08;9.90;97.00
40374;DHT22;26079;45.958;12.492;2023-04-28T00:20:34;9.80;96.60
40374;DHT22;26079;45.958;12.492;2023-04-28T00:23:00;9.70;96.50
40374;DHT22;26079;45.958;12.492;2023-04-28T00:25:25;9.60;96.40
40374;DHT22;26079;45.958;12.492;2023-04-28T00:27:51;9.50;96.40
40374;DHT22;26079;45.958;12.492;2023-04-28T00:30:17;9.50;96.60
40374;DHT22;26079;45.958;12.492;2023-04-28T00:32:42;9.60;96.20
40374;DHT22;26079;45.958;12.492;2023-04-28T00:35:08;9.60;96.10
40374;DHT22;26079;45.958;12.492;2023-04-28T00:37:37;9.60;95.90
40374;DHT22;26079;45.958;12.492;2023-04-28T00:40:03;9.60;96.00
40374;DHT22;26079;45.958;12.492;2023-04-28T00:42:29;9.70;95.90
40374;DHT22;26079;45.958;12.492;2023-04-28T00:44:55;9.70;96.10
40374;DHT22;26079;45.958;12.492;2023-04-28T00:47:21;9.70;96.10
40374;DHT22;26079;45.958;12.492;2023-04-28T00:49:47;9.70;96.00
40374;DHT22;26079;45.958;12.492;2023-04-28T00:52:14;9.80;96.00
40374;DHT22;26079;45.958;12.492;2023-04-28T00:54:40;9.80;95.70
40374;DHT22;26079;45.958;12.492;2023-04-28T00:57:08;9.80;96.00
40374;DHT22;26079;45.958;12.492;2023-04-28T00:59:35;9.80;96.00
40374;DHT22;26079;45.958;12.492;2023-04-28T01:02:01;9.80;95.50
40374;DHT22;26079;45.958;12.492;2023-04-28T01:04:28;9.80;95.40
40374;DHT22;26079;45.958;12.492;2023-04-28T01:06:54;9.80;95.10
40374;DHT22;26079;45.958;12.492;2023-04-28T01:09:21;9.80;95.70
40374;DHT22;26079;45.958;12.492;2023-04-28T01:11:46;9.90;95.80
40374;DHT22;26079;45.958;12.492;2023-04-28T01:14:12;9.90;95.80
40374;DHT22;26079;45.958;12.492;2023-04-28T01:16:38;9.90;96.20
40374;DHT22;26079;45.958;12.492;2023-04-28T01:19:14;9.90;96.10
40374;DHT22;26079;45.958;12.492;2023-04-28T01:21:41;9.80;95.30
40374;DHT22;26079;45.958;12.492;2023-04-28T01:24:07;9.80;96.10
40374;DHT22;26079;45.958;12.492;2023-04-28T01:26:32;9.80;96.10
40374;DHT22;26079;45.958;12.492;2023-04-28T01:28:58;9.80;96.20
40374;DHT22;26079;45.958;12.492;2023-04-28T01:31:24;9.70;96.30
40374;DHT22;26079;45.958;12.492;2023-04-28T01:33:50;9.60;96.60
40374;DHT22;26079;45.958;12.492;2023-04-28T01:36:16;9.50;97.20
40374;DHT22;26079;45.958;12.492;2023-04-28T01:38:41;9.50;97.20
40374;DHT22;26079;45.958;12.492;2023-04-28T01:41:07;9.50;97.50
40374;DHT22;26079;45.958;12.492;2023-04-28T01:43:32;9.50;97.90
40374;DHT22;26079;45.958;12.492;2023-04-28T01:45:58;9.50;98.50
40374;DHT22;26079;45.958;12.492;2023-04-28T01:48:24;9.50;98.40
40374;DHT22;26079;45.958;12.492;2023-04-28T01:50:49;9.50;98.10
40374;DHT22;26079;45.958;12.492;2023-04-28T01:53:15;9.50;97.90
40374;DHT22;26079;45.958;12.492;2023-04-28T01:55:45;9.60;97.80
40374;DHT22;26079;45.958;12.492;2023-04-28T01:58:11;9.60;97.40
40374;DHT22;26079;45.958;12.492;2023-04-28T02:00:37;9.60;97.50
40374;DHT22;26079;45.958;12.492;2023-04-28T02:03:02;9.60;97.90
40374;DHT22;26079;45.958;12.492;2023-04-28T02:05:28;9.70;98.70
40374;DHT22;26079;45.958;12.492;2023-04-28T02:07:54;9.70;99.20
40374;DHT22;26079;45.958;12.492;2023-04-28T02:10:20;9.80;99.10
40374;DHT22;26079;45.958;12.492;2023-04-28T02:12:46;9.90;99.40
40374;DHT22;26079;45.958;12.492;2023-04-28T02:15:11;9.90;98.30
40374;DHT22;26079;45.958;12.492;2023-04-28T02:17:37;9.90;98.20
40374;DHT22;26079;45.958;12.492;2023-04-28T02:20:03;9.90;98.00
40374;DHT22;26079;45.958;12.492;2023-04-28T02:22:29;9.90;97.90
40374;DHT22;26079;45.958;12.492;2023-04-28T02:24:55;9.80;98.50
40374;DHT22;26079;45.958;12.492;2023-04-28T02:27:21;9.80;99.10
40374;DHT22;26079;45.958;12.492;2023-04-28T02:29:47;9.70;99.20
40374;DHT22;26079;45.958;12.492;2023-04-28T02:32:13;9.70;99.00
40374;DHT22;26079;45.958;12.492;2023-04-28T02:34:38;9.70;99.20
40374;DHT22;26079;45.958;12.492;2023-04-28T02:37:04;9.70;98.70
40374;DHT22;26079;45.958;12.492;2023-04-28T02:39:30;9.70;98.40
40374;DHT22;26079;45.958;12.492;2023-04-28T02:41:57;9.70;98.60
40374;DHT22;26079;45.958;12.492;2023-04-28T02:44:23;9.60;97.90
40374;DHT22;26079;45.958;12.492;2023-04-28T02:46:48;9.60;98.30
40374;DHT22;26079;45.958;12.492;2023-04-28T02:49:14;9.60;98.90
40374;DHT22;26079;45.958;12.492;2023-04-28T02:51:40;9.60;98.30
40374;DHT22;26079;45.958;12.492;2023-04-28T02:54:06;9.50;98.50
40374;DHT22;26079;45.958;12.492;2023-04-28T02:56:32;9.50;99.00
40374;DHT22;26079;45.958;12.492;2023-04-28T02:58:58;9.50;99.30
40374;DHT22;26079;45.958;12.492;2023-04-28T03:01:24;9.50;99.30
40374;DHT22;26079;45.958;12.492;2023-04-28T03:03:49;9.60;99.90
40374;DHT22;26079;45.958;12.492;2023-04-28T03:06:15;9.70;99.20
40374;DHT22;26079;45.958;12.492;2023-04-28T03:08:41;9.60;98.40
40374;DHT22;26079;45.958;12.492;2023-04-28T03:11:07;9.50;99.20
40374;DHT22;26079;45.958;12.492;2023-04-28T03:13:32;9.40;99.30
40374;DHT22;26079;45.958;12.492;2023-04-28T03:15:58;9.30;99.50
40374;DHT22;26079;45.958;12.492;2023-04-28T03:18:24;9.10;99.90
40374;DHT22;26079;45.958;12.492;2023-04-28T03:20:49;8.90;99.90
40374;DHT22;26079;45.958;12.492;2023-04-28T03:23:15;8.90;99.90
40374;DHT22;26079;45.958;12.492;2023-04-28T03:25:41;8.90;99.90
40374;DHT22;26079;45.958;12.492;2023-04-28T03:28:06;8.90;99.90
40374;DHT22;26079;45.958;12.492;2023-04-28T03:30:32;9.00;99.90
40374;DHT22;26079;45.958;12.492;2023-04-28T03:32:58;9.10;99.90
40374;DHT22;26079;45.958;12.492;2023-04-28T03:35:23;9.20;99.90
40374;DHT22;26079;45.958;12.492;2023-04-28T03:37:49;9.20;99.90
40374;DHT22;26079;45.958;12.492;2023-04-28T03:40:15;9.20;99.90
40374;DHT22;26079;45.958;12.492;2023-04-28T03:42:40;9.20;99.90
40374;DHT22;26079;45.958;12.492;2023-04-28T03:45:07;9.20;99.90
40374;DHT22;26079;45.958;12.492;2023-04-28T03:47:33;9.20;99.90
40374;DHT22;26079;45.958;12.492;2023-04-28T03:49:58;9.20;99.90
40374;DHT22;26079;45.958;12.492;2023-04-28T03:52:24;9.20;99.90
40374;DHT22;26079;45.958;12.492;2023-04-28T03:54:50;9.10;99.90
40374;DHT22;26079;45.958;12.492;2023-04-28T03:57:16;9.00;99.90
40374;DHT22;26079;45.958;12.492;2023-04-28T03:59:42;8.90;99.90
40374;DHT22;26079;45.958;12.492;2023-04-28T04:02:08;8.90;99.90
40374;DHT22;26079;45.958;12.492;2023-04-28T04:04:33;9.00;99.90
40374;DHT22;26079;45.958;12.492;2023-04-28T04:06:59;9.10;99.90
40374;DHT22;26079;45.958;12.492;2023-04-28T04:09:25;9.10;99.90
40374;DHT22;26079;45.958;12.492;2023-04-28T04:11:51;9.10;99.90
40374;DHT22;26079;45.958;12.492;2023-04-28T04:14:17;9.20;99.90
40374;DHT22;26079;45.958;12.492;2023-04-28T04:16:42;9.10;99.90
40374;DHT22;26079;45.958;12.492;2023-04-28T04:19:08;9.00;99.90
40374;DHT22;26079;45.958;12.492;2023-04-28T04:21:34;8.90;99.90
40374;DHT22;26079;45.958;12.492;2023-04-28T04:23:59;8.90;99.90
40374;DHT22;26079;45.958;12.492;2023-04-28T04:26:25;8.90;99.90
40374;DHT22;26079;45.958;12.492;2023-04-28T04:28:51;8.90;99.90
40374;DHT22;26079;45.958;12.492;2023-04-28T04:31:17;8.80;99.90
40374;DHT22;26079;45.958;12.492;2023-04-28T04:33:44;8.80;99.90
40374;DHT22;26079;45.958;12.492;2023-04-28T04:36:09;8.90;99.90
40374;DHT22;26079;45.958;12.492;2023-04-28T04:38:35;8.90;99.90
40374;DHT22;26079;45.958;12.492;2023-04-28T04:41:01;9.00;99.90
40374;DHT22;26079;45.958;12.492;2023-04-28T04:43:26;9.20;99.90
40374;DHT22;26079;45.958;12.492;2023-04-28T04:45:52;9.30;99.90
40374;DHT22;26079;45.958;12.492;2023-04-28T04:48:18;9.50;99.90
40374;DHT22;26079;45.958;12.492;2023-04-28T04:50:44;9.60;99.90
40374;DHT22;26079;45.958;12.492;2023-04-28T04:53:09;9.70;99.90
40374;DHT22;26079;45.958;12.492;2023-04-28T04:55:35;9.70;99.60
40374;DHT22;26079;45.958;12.492;2023-04-28T04:58:01;9.70;99.90
40374;DHT22;26079;45.958;12.492;2023-04-28T05:00:26;9.80;99.90
40374;DHT22;26079;45.958;12.492;2023-04-28T05:02:52;9.90;99.90
40374;DHT22;26079;45.958;12.492;2023-04-28T05:05:18;10.00;99.90
40374;DHT22;26079;45.958;12.492;2023-04-28T05:07:43;10.10;99.90
40374;DHT22;26079;45.958;12.492;2023-04-28T05:10:09;10.20;99.10
40374;DHT22;26079;45.958;12.492;2023-04-28T05:12:36;10.20;98.80
40374;DHT22;26079;45.958;12.492;2023-04-28T05:15:06;10.30;98.90
40374;DHT22;26079;45.958;12.492;2023-04-28T05:17:32;10.20;98.20
40374;DHT22;26079;45.958;12.492;2023-04-28T05:19:58;10.40;99.90
40374;DHT22;26079;45.958;12.492;2023-04-28T05:22:24;10.60;99.60
40374;DHT22;26079;45.958;12.492;2023-04-28T05:24:50;10.70;98.10
40374;DHT22;26079;45.958;12.492;2023-04-28T05:27:17;10.90;96.80
40374;DHT22;26079;45.958;12.492;2023-04-28T05:29:43;11.00;97.10
40374;DHT22;26079;45.958;12.492;2023-04-28T05:32:09;11.30;97.90
40374;DHT22;26079;45.958;12.492;2023-04-28T05:34:34;11.60;96.20
40374;DHT22;26079;45.958;12.492;2023-04-28T05:37:00;11.80;96.00
40374;DHT22;26079;45.958;12.492;2023-04-28T05:39:25;12.00;93.40
40374;DHT22;26079;45.958;12.492;2023-04-28T05:41:51;12.40;92.80
40374;DHT22;26079;45.958;12.492;2023-04-28T05:44:17;13.00;91.50
40374;DHT22;26079;45.958;12.492;2023-04-28T05:46:42;13.80;87.90
40374;DHT22;26079;45.958;12.492;2023-04-28T05:49:09;14.50;86.30
40374;DHT22;26079;45.958;12.492;2023-04-28T05:51:35;15.00;84.40
40374;DHT22;26079;45.958;12.492;2023-04-28T05:54:00;15.20;84.40
40374;DHT22;26079;45.958;12.492;2023-04-28T05:56:26;15.30;85.10
40374;DHT22;26079;45.958;12.492;2023-04-28T05:58:52;15.50;85.30
40374;DHT22;26079;45.958;12.492;2023-04-28T06:01:17;15.40;82.40
40374;DHT22;26079;45.958;12.492;2023-04-28T06:03:43;15.50;81.20
40374;DHT22;26079;45.958;12.492;2023-04-28T06:06:10;15.50;81.90
40374;DHT22;26079;45.958;12.492;2023-04-28T06:08:36;15.50;83.60
40374;DHT22;26079;45.958;12.492;2023-04-28T06:11:01;15.70;83.50
40374;DHT22;26079;45.958;12.492;2023-04-28T06:13:27;15.80;84.50
40374;DHT22;26079;45.958;12.492;2023-04-28T06:15:53;15.80;84.80
40374;DHT22;26079;45.958;12.492;2023-04-28T06:18:19;15.70;83.90
40374;DHT22;26079;45.958;12.492;2023-04-28T06:20:44;15.60;83.70
40374;DHT22;26079;45.958;12.492;2023-04-28T06:23:10;15.20;82.20
40374;DHT22;26079;45.958;12.492;2023-04-28T06:25:36;14.90;82.40
40374;DHT22;26079;45.958;12.492;2023-04-28T06:28:02;14.60;81.10
40374;DHT22;26079;45.958;12.492;2023-04-28T06:30:31;14.50;83.50
40374;DHT22;26079;45.958;12.492;2023-04-28T06:32:56;14.50;84.00
40374;DHT22;26079;45.958;12.492;2023-04-28T06:35:22;14.50;81.70
40374;DHT22;26079;45.958;12.492;2023-04-28T06:37:48;14.40;83.60
40374;DHT22;26079;45.958;12.492;2023-04-28T06:40:14;14.40;84.60
40374;DHT22;26079;45.958;12.492;2023-04-28T06:42:39;14.10;80.10
40374;DHT22;26079;45.958;12.492;2023-04-28T06:45:06;13.90;81.80
40374;DHT22;26079;45.958;12.492;2023-04-28T06:47:31;13.80;83.30
40374;DHT22;26079;45.958;12.492;2023-04-28T06:49:57;13.80;85.10
40374;DHT22;26079;45.958;12.492;2023-04-28T06:52:23;13.80;84.80
40374;DHT22;26079;45.958;12.492;2023-04-28T06:54:49;13.80;84.90
40374;DHT22;26079;45.958;12.492;2023-04-28T06:57:16;13.80;85.10
40374;DHT22;26079;45.958;12.492;2023-04-28T06:59:41;13.80;83.80
40374;DHT22;26079;45.958;12.492;2023-04-28T07:02:09;13.80;84.00
40374;DHT22;26079;45.958;12.492;2023-04-28T07:04:35;13.80;84.30
40374;DHT22;26079;45.958;12.492;2023-04-28T07:07:01;13.80;84.50
40374;DHT22;26079;45.958;12.492;2023-04-28T07:09:27;13.80;85.60
40374;DHT22;26079;45.958;12.492;2023-04-28T07:11:52;13.90;85.80
40374;DHT22;26079;45.958;12.492;2023-04-28T07:14:18;14.00;84.00
40374;DHT22;26079;45.958;12.492;2023-04-28T07:16:44;14.20;84.00
40374;DHT22;26079;45.958;12.492;2023-04-28T07:19:13;14.30;83.60
40374;DHT22;26079;45.958;12.492;2023-04-28T07:21:39;14.40;84.30
40374;DHT22;26079;45.958;12.492;2023-04-28T07:24:05;14.50;85.00
40374;DHT22;26079;45.958;12.492;2023-04-28T07:26:32;14.60;83.60
40374;DHT22;26079;45.958;12.492;2023-04-28T07:28:58;14.50;82.80
40374;DHT22;26079;45.958;12.492;2023-04-28T07:31:23;14.50;83.70
40374;DHT22;26079;45.958;12.492;2023-04-28T07:33:50;14.40;84.00
40374;DHT22;26079;45.958;12.492;2023-04-28T07:36:16;14.40;84.90
40374;DHT22;26079;45.958;12.492;2023-04-28T07:38:41;14.30;83.30
40374;DHT22;26079;45.958;12.492;2023-04-28T07:41:07;14.30;85.10
40374;DHT22;26079;45.958;12.492;2023-04-28T07:43:35;14.20;84.80
40374;DHT22;26079;45.958;12.492;2023-04-28T07:46:00;14.20;83.20
40374;DHT22;26079;45.958;12.492;2023-04-28T07:48:26;14.20;84.90
40374;DHT22;26079;45.958;12.492;2023-04-28T07:50:52;14.20;83.40
40374;DHT22;26079;45.958;12.492;2023-04-28T07:53:18;14.20;82.80
40374;DHT22;26079;45.958;12.492;2023-04-28T07:55:44;14.20;82.90
40374;DHT22;26079;45.958;12.492;2023-04-28T07:58:10;14.20;82.10
40374;DHT22;26079;45.958;12.492;2023-04-28T08:00:36;14.20;83.10
40374;DHT22;26079;45.958;12.492;2023-04-28T08:03:02;14.20;81.70
40374;DHT22;26079;45.958;12.492;2023-04-28T08:05:28;14.10;82.40
40374;DHT22;26079;45.958;12.492;2023-04-28T08:07:54;14.10;81.70
40374;DHT22;26079;45.958;12.492;2023-04-28T08:10:20;14.10;81.00
40374;DHT22;26079;45.958;12.492;2023-04-28T08:12:45;14.10;82.00
40374;DHT22;26079;45.958;12.492;2023-04-28T08:15:11;14.10;84.90
40374;DHT22;26079;45.958;12.492;2023-04-28T08:17:37;14.10;85.50
40374;DHT22;26079;45.958;12.492;2023-04-28T08:20:04;14.10;85.70
40374;DHT22;26079;45.958;12.492;2023-04-28T08:22:31;14.10;85.60
40374;DHT22;26079;45.958;12.492;2023-04-28T08:24:56;14.10;84.50
40374;DHT22;26079;45.958;12.492;2023-04-28T08:27:22;13.90;84.90
40374;DHT22;26079;45.958;12.492;2023-04-28T08:29:50;14.00;87.00
40374;DHT22;26079;45.958;12.492;2023-04-28T08:32:16;13.90;84.30
40374;DHT22;26079;45.958;12.492;2023-04-28T08:34:42;14.00;85.50
40374;DHT22;26079;45.958;12.492;2023-04-28T08:37:07;14.10;85.80
40374;DHT22;26079;45.958;12.492;2023-04-28T08:39:33;14.10;86.10
40374;DHT22;26079;45.958;12.492;2023-04-28T08:42:02;14.20;86.10
40374;DHT22;26079;45.958;12.492;2023-04-28T08:44:35;14.40;85.80
40374;DHT22;26079;45.958;12.492;2023-04-28T08:47:08;14.50;85.20
40374;DHT22;26079;45.958;12.492;2023-04-28T08:49:36;14.80;84.40
40374;DHT22;26079;45.958;12.492;2023-04-28T08:52:07;14.90;84.30
40374;DHT22;26079;45.958;12.492;2023-04-28T08:54:35;15.10;84.60
40374;DHT22;26079;45.958;12.492;2023-04-28T08:57:02;15.20;83.20
40374;DHT22;26079;45.958;12.492;2023-04-28T08:59:29;15.50;83.10
40374;DHT22;26079;45.958;12.492;2023-04-28T09:01:55;15.70;82.20
40374;DHT22;26079;45.958;12.492;2023-04-28T09:04:21;15.60;81.50
40374;DHT22;26079;45.958;12.492;2023-04-28T09:06:47;15.80;82.20
40374;DHT22;26079;45.958;12.492;2023-04-28T09:09:24;16.20;82.30
40374;DHT22;26079;45.958;12.492;2023-04-28T09:14:20;16.80;79.10
40374;DHT22;26079;45.958;12.492;2023-04-28T09:16:45;16.70;76.80
40374;DHT22;26079;45.958;12.492;2023-04-28T09:19:11;16.60;79.20
40374;DHT22;26079;45.958;12.492;2023-04-28T09:21:54;16.50;79.20
40374;DHT22;26079;45.958;12.492;2023-04-28T09:26:59;16.50;78.10
40374;DHT22;26079;45.958;12.492;2023-04-28T09:29:27;16.50;77.30
40374;DHT22;26079;45.958;12.492;2023-04-28T09:31:53;16.60;79.60
40374;DHT22;26079;45.958;12.492;2023-04-28T09:34:22;16.70;77.40
40374;DHT22;26079;45.958;12.492;2023-04-28T09:36:47;16.60;77.60
40374;DHT22;26079;45.958;12.492;2023-04-28T09:39:13;16.80;79.70
40374;DHT22;26079;45.958;12.492;2023-04-28T09:41:41;16.90;77.20
40374;DHT22;26079;45.958;12.492;2023-04-28T09:44:16;17.10;77.00
40374;DHT22;26079;45.958;12.492;2023-04-28T09:46:43;17.30;76.30
40374;DHT22;26079;45.958;12.492;2023-04-28T09:49:10;17.60;76.50
40374;DHT22;26079;45.958;12.492;2023-04-28T09:51:36;17.80;75.80
40374;DHT22;26079;45.958;12.492;2023-04-28T09:54:03;17.80;75.00
40374;DHT22;26079;45.958;12.492;2023-04-28T09:56:30;17.80;74.40
40374;DHT22;26079;45.958;12.492;2023-04-28T09:58:56;17.90;74.40
40374;DHT22;26079;45.958;12.492;2023-04-28T10:01:34;17.90;75.50
40374;DHT22;26079;45.958;12.492;2023-04-28T10:04:03;18.00;75.50
40374;DHT22;26079;45.958;12.492;2023-04-28T10:06:29;18.30;72.40
40374;DHT22;26079;45.958;12.492;2023-04-28T10:08:55;18.40;71.20
40374;DHT22;26079;45.958;12.492;2023-04-28T10:11:22;18.60;71.80
40374;DHT22;26079;45.958;12.492;2023-04-28T10:13:50;18.40;72.80
40374;DHT22;26079;45.958;12.492;2023-04-28T10:16:16;18.50;74.40
40374;DHT22;26079;45.958;12.492;2023-04-28T10:18:43;18.50;71.50
40374;DHT22;26079;45.958;12.492;2023-04-28T10:21:11;18.40;72.60
40374;DHT22;26079;45.958;12.492;2023-04-28T10:26:26;18.20;72.30
40374;DHT22;26079;45.958;12.492;2023-04-28T10:28:59;18.40;73.50
40374;DHT22;26079;45.958;12.492;2023-04-28T10:31:25;18.70;73.40
40374;DHT22;26079;45.958;12.492;2023-04-28T10:33:50;19.00;71.50
40374;DHT22;26079;45.958;12.492;2023-04-28T10:36:51;19.10;68.10
40374;DHT22;26079;45.958;12.492;2023-04-28T10:39:19;19.20;69.50
40374;DHT22;26079;45.958;12.492;2023-04-28T10:41:46;19.20;69.60
40374;DHT22;26079;45.958;12.492;2023-04-28T10:44:40;19.40;69.30
40374;DHT22;26079;45.958;12.492;2023-04-28T10:47:08;19.40;68.60
40374;DHT22;26079;45.958;12.492;2023-04-28T10:55:31;19.30;66.40
40374;DHT22;26079;45.958;12.492;2023-04-28T11:00:45;18.50;67.40
40374;DHT22;26079;45.958;12.492;2023-04-28T11:06:22;18.40;68.80
40374;DHT22;26079;45.958;12.492;2023-04-28T11:08:49;18.60;70.40
40374;DHT22;26079;45.958;12.492;2023-04-28T11:11:34;18.60;67.20
40374;DHT22;26079;45.958;12.492;2023-04-28T11:19:23;18.90;67.00
40374;DHT22;26079;45.958;12.492;2023-04-28T11:21:51;18.90;67.10
40374;DHT22;26079;45.958;12.492;2023-04-28T11:24:17;18.80;66.20
40374;DHT22;26079;45.958;12.492;2023-04-28T11:26:43;18.80;69.00
40374;DHT22;26079;45.958;12.492;2023-04-28T11:29:10;18.60;66.00
40374;DHT22;26079;45.958;12.492;2023-04-28T11:31:36;18.50;66.20
40374;DHT22;26079;45.958;12.492;2023-04-28T11:34:08;18.60;66.60
40374;DHT22;26079;45.958;12.492;2023-04-28T11:36:38;18.70;64.10
40374;DHT22;26079;45.958;12.492;2023-04-28T11:39:06;18.80;64.00
40374;DHT22;26079;45.958;12.492;2023-04-28T11:41:33;19.00;66.30
40374;DHT22;26079;45.958;12.492;2023-04-28T11:44:00;19.20;64.80
40374;DHT22;26079;45.958;12.492;2023-04-28T11:46:33;19.50;66.90
40374;DHT22;26079;45.958;12.492;2023-04-28T11:49:03;19.20;63.80
40374;DHT22;26079;45.958;12.492;2023-04-28T11:51:36;19.10;63.50
40374;DHT22;26079;45.958;12.492;2023-04-28T11:54:04;19.10;65.60
40374;DHT22;26079;45.958;12.492;2023-04-28T11:56:42;19.20;64.80
40374;DHT22;26079;45.958;12.492;2023-04-28T11:59:11;19.20;64.80
40374;DHT22;26079;45.958;12.492;2023-04-28T12:01:51;19.10;64.10
40374;DHT22;26079;45.958;12.492;2023-04-28T12:04:34;19.00;65.70
40374;DHT22;26079;45.958;12.492;2023-04-28T12:07:15;18.80;64.70
40374;DHT22;26079;45.958;12.492;2023-04-28T12:09:46;18.40;64.40
40374;DHT22;26079;45.958;12.492;2023-04-28T12:17:26;18.10;66.00
40374;DHT22;26079;45.958;12.492;2023-04-28T12:19:53;18.00;65.80
40374;DHT22;26079;45.958;12.492;2023-04-28T12:22:20;17.90;65.90
40374;DHT22;26079;45.958;12.492;2023-04-28T12:24:45;18.00;66.20
40374;DHT22;26079;45.958;12.492;2023-04-28T12:27:16;18.40;65.70
40374;DHT22;26079;45.958;12.492;2023-04-28T12:29:42;18.80;64.70
40374;DHT22;26079;45.958;12.492;2023-04-28T12:32:13;19.00;65.50
40374;DHT22;26079;45.958;12.492;2023-04-28T12:34:40;19.00;64.90
40374;DHT22;26079;45.958;12.492;2023-04-28T12:37:06;18.90;64.10
40374;DHT22;26079;45.958;12.492;2023-04-28T12:39:34;19.00;65.00
40374;DHT22;26079;45.958;12.492;2023-04-28T12:42:01;18.90;63.30
40374;DHT22;26079;45.958;12.492;2023-04-28T12:44:31;18.80;64.40
40374;DHT22;26079;45.958;12.492;2023-04-28T12:47:01;18.90;64.10
40374;DHT22;26079;45.958;12.492;2023-04-28T12:49:27;19.00;63.50
40374;DHT22;26079;45.958;12.492;2023-04-28T12:51:52;18.90;63.20
40374;DHT22;26079;45.958;12.492;2023-04-28T12:54:18;18.80;63.80
40374;DHT22;26079;45.958;12.492;2023-04-28T12:56:44;18.70;63.90
40374;DHT22;26079;45.958;12.492;2023-04-28T12:59:09;18.80;66.30
40374;DHT22;26079;45.958;12.492;2023-04-28T13:01:35;18.90;63.80
40374;DHT22;26079;45.958;12.492;2023-04-28T13:04:01;18.90;62.60
40374;DHT22;26079;45.958;12.492;2023-04-28T13:06:26;19.00;63.70
40374;DHT22;26079;45.958;12.492;2023-04-28T13:08:53;18.80;62.00
40374;DHT22;26079;45.958;12.492;2023-04-28T13:11:18;18.70;62.40
40374;DHT22;26079;45.958;12.492;2023-04-28T13:13:44;18.80;63.70
40374;DHT22;26079;45.958;12.492;2023-04-28T13:16:10;18.90;63.60
40374;DHT22;26079;45.958;12.492;2023-04-28T13:18:36;19.00;63.50
40374;DHT22;26079;45.958;12.492;2023-04-28T13:21:02;19.10;62.90
40374;DHT22;26079;45.958;12.492;2023-04-28T13:23:30;19.10;62.60
40374;DHT22;26079;45.958;12.492;2023-04-28T13:25:55;19.10;62.00
40374;DHT22;26079;45.958;12.492;2023-04-28T13:28:28;19.00;61.70
40374;DHT22;26079;45.958;12.492;2023-04-28T13:31:00;18.90;63.60
40374;DHT22;26079;45.958;12.492;2023-04-28T13:33:26;18.90;63.90
40374;DHT22;26079;45.958;12.492;2023-04-28T13:35:57;19.00;63.30
40374;DHT22;26079;45.958;12.492;2023-04-28T13:38:27;18.80;62.20
40374;DHT22;26079;45.958;12.492;2023-04-28T13:40:53;18.90;61.80
40374;DHT22;26079;45.958;12.492;2023-04-28T13:43:19;19.00;62.00
40374;DHT22;26079;45.958;12.492;2023-04-28T13:45:44;19.00;62.10
40374;DHT22;26079;45.958;12.492;2023-04-28T13:48:10;18.90;62.00
40374;DHT22;26079;45.958;12.492;2023-04-28T13:50:37;18.90;60.10
40374;DHT22;26079;45.958;12.492;2023-04-28T13:53:02;19.00;62.20
40374;DHT22;26079;45.958;12.492;2023-04-28T13:55:28;19.10;62.40
40374;DHT22;26079;45.958;12.492;2023-04-28T13:57:54;19.20;61.80
40374;DHT22;26079;45.958;12.492;2023-04-28T14:00:20;19.30;60.30
40374;DHT22;26079;45.958;12.492;2023-04-28T14:02:46;19.40;60.50
40374;DHT22;26079;45.958;12.492;2023-04-28T14:05:14;19.30;60.90
40374;DHT22;26079;45.958;12.492;2023-04-28T14:07:41;18.90;60.80
40374;DHT22;26079;45.958;12.492;2023-04-28T14:10:08;18.80;60.10
40374;DHT22;26079;45.958;12.492;2023-04-28T14:12:34;18.60;59.40
40374;DHT22;26079;45.958;12.492;2023-04-28T14:14:59;18.70;61.70
40374;DHT22;26079;45.958;12.492;2023-04-28T14:17:25;19.00;60.00
40374;DHT22;26079;45.958;12.492;2023-04-28T14:19:52;19.20;61.60
40374;DHT22;26079;45.958;12.492;2023-04-28T14:22:18;19.30;61.30
40374;DHT22;26079;45.958;12.492;2023-04-28T14:24:44;19.30;60.30
40374;DHT22;26079;45.958;12.492;2023-04-28T14:27:09;19.20;61.50
40374;DHT22;26079;45.958;12.492;2023-04-28T14:29:35;19.00;59.60
40374;DHT22;26079;45.958;12.492;2023-04-28T14:32:01;19.00;60.80
40374;DHT22;26079;45.958;12.492;2023-04-28T14:34:26;18.90;60.70
40374;DHT22;26079;45.958;12.492;2023-04-28T14:36:53;18.90;60.50
40374;DHT22;26079;45.958;12.492;2023-04-28T14:39:18;18.70;60.90
40374;DHT22;26079;45.958;12.492;2023-04-28T14:41:44;18.70;60.80
40374;DHT22;26079;45.958;12.492;2023-04-28T14:44:10;18.70;61.60
40374;DHT22;26079;45.958;12.492;2023-04-28T14:46:36;18.60;60.80
40374;DHT22;26079;45.958;12.492;2023-04-28T14:49:02;18.40;60.60
40374;DHT22;26079;45.958;12.492;2023-04-28T14:51:28;18.50;60.60
40374;DHT22;26079;45.958;12.492;2023-04-28T14:53:54;18.50;62.30
40374;DHT22;26079;45.958;12.492;2023-04-28T14:56:20;18.60;61.90
40374;DHT22;26079;45.958;12.492;2023-04-28T14:58:46;18.60;62.90
40374;DHT22;26079;45.958;12.492;2023-04-28T15:01:12;18.70;61.90
40374;DHT22;26079;45.958;12.492;2023-04-28T15:03:38;18.60;61.50
40374;DHT22;26079;45.958;12.492;2023-04-28T15:06:03;18.50;62.80
40374;DHT22;26079;45.958;12.492;2023-04-28T15:08:31;18.50;61.90
40374;DHT22;26079;45.958;12.492;2023-04-28T15:10:57;18.10;60.40
40374;DHT22;26079;45.958;12.492;2023-04-28T15:13:23;17.90;62.20
40374;DHT22;26079;45.958;12.492;2023-04-28T15:15:52;17.90;62.90
40374;DHT22;26079;45.958;12.492;2023-04-28T15:18:18;17.80;62.70
40374;DHT22;26079;45.958;12.492;2023-04-28T15:20:44;17.70;62.10
40374;DHT22;26079;45.958;12.492;2023-04-28T15:23:10;17.60;62.50
40374;DHT22;26079;45.958;12.492;2023-04-28T15:25:35;17.50;61.90
40374;DHT22;26079;45.958;12.492;2023-04-28T15:28:01;17.60;63.30
40374;DHT22;26079;45.958;12.492;2023-04-28T15:30:31;17.70;62.50
40374;DHT22;26079;45.958;12.492;2023-04-28T15:32:58;17.90;62.60
40374;DHT22;26079;45.958;12.492;2023-04-28T15:35:24;18.10;63.40
40374;DHT22;26079;45.958;12.492;2023-04-28T15:37:50;18.10;62.50
40374;DHT22;26079;45.958;12.492;2023-04-28T15:40:20;18.20;62.20
40374;DHT22;26079;45.958;12.492;2023-04-28T15:42:46;18.30;61.70
40374;DHT22;26079;45.958;12.492;2023-04-28T15:45:18;18.30;62.50
40374;DHT22;26079;45.958;12.492;2023-04-28T15:47:46;18.40;61.70